sensor_id;sensor_type;location;lat;lon;timestamp;temperature;humidity
5705;DHT22;2877;48.238;11.160;2022-08-20T00:00:40;16.70;99.90
5705;DHT22;2877;48.238;11.160;2022-08-20T00:03:14;16.70;99.90
5705;DHT22;2877;48.238;11.160;2022-08-20T00:05:44;16.70;99.90
5705;DHT22;2877;48.238;11.160;2022-08-20T00:08:10;16.70;99.90
5705;DHT22;2877;48.238;11.160;2022-08-20T00:10:40;16.70;99.90
5705;DHT22;2877;48.238;11.160;2022-08-20T00:13:08;16.70;99.90
5705;DHT22;2877;48.238;11.160;2022-08-20T00:15:36;16.70;99.90
5705;DHT22;2877;48.238;11.160;2022-08-20T00:18:04;16.70;99.90
5705;DHT22;2877;48.238;11.160;2022-08-20T00:20:32;16.70;99.90
5705;DHT22;2877;48.238;11.160;2022-08-20T00:22:58;16.60;99.90
5705;DHT22;2877;48.238;11.160;2022-08-20T00:25:27;16.60;99.90
5705;DHT22;2877;48.238;11.160;2022-08-20T00:27:54;16.60;99.90
5705;DHT22;2877;48.238;11.160;2022-08-20T00:30:20;16.60;99.90
5705;DHT22;2877;48.238;11.160;2022-08-20T00:32:52;16.50;99.90
5705;DHT22;2877;48.238;11.160;2022-08-20T00:35:21;16.50;99.90
5705;DHT22;2877;48.238;11.160;2022-08-20T00:37:47;16.50;99.90
5705;DHT22;2877;48.238;11.160;2022-08-20T00:40:16;16.50;99.90
5705;DHT22;2877;48.238;11.160;2022-08-20T00:42:44;16.50;99.90
5705;DHT22;2877;48.238;11.160;2022-08-20T00:45:11;16.50;99.90
5705;DHT22;2877;48.238;11.160;2022-08-20T00:47:38;16.50;99.90
5705;DHT22;2877;48.238;11.160;2022-08-20T00:50:13;16.50;99.90
5705;DHT22;2877;48.238;11.160;2022-08-20T00:52:40;16.50;99.90
5705;DHT22;2877;48.238;11.160;2022-08-20T00:55:08;16.50;99.90
5705;DHT22;2877;48.238;11.160;2022-08-20T00:57:45;16.50;99.90
5705;DHT22;2877;48.238;11.160;2022-08-20T01:00:15;16.50;99.90
5705;DHT22;2877;48.238;11.160;2022-08-20T01:02:42;16.50;99.90
5705;DHT22;2877;48.238;11.160;2022-08-20T01:05:09;16.50;99.90
5705;DHT22;2877;48.238;11.160;2022-08-20T01:07:36;16.50;99.90
5705;DHT22;2877;48.238;11.160;2022-08-20T01:10:14;16.50;99.90
5705;DHT22;2877;48.238;11.160;2022-08-20T01:12:43;16.40;99.90
5705;DHT22;2877;48.238;11.160;2022-08-20T01:15:12;16.50;99.90
5705;DHT22;2877;48.238;11.160;2022-08-20T01:17:43;16.40;99.90
5705;DHT22;2877;48.238;11.160;2022-08-20T01:20:16;16.40;99.90
5705;DHT22;2877;48.238;11.160;2022-08-20T01:22:57;16.40;99.90
5705;DHT22;2877;48.238;11.160;2022-08-20T01:26:09;16.40;99.90
5705;DHT22;2877;48.238;11.160;2022-08-20T01:31:08;16.40;99.90
5705;DHT22;2877;48.238;11.160;2022-08-20T01:33:34;16.50;99.90
5705;DHT22;2877;48.238;11.160;2022-08-20T01:35:59;16.50;99.90
5705;DHT22;2877;48.238;11.160;2022-08-20T01:38:27;16.50;99.90
5705;DHT22;2877;48.238;11.160;2022-08-20T01:43:31;16.50;99.90
5705;DHT22;2877;48.238;11.160;2022-08-20T01:45:57;16.50;99.90
5705;DHT22;2877;48.238;11.160;2022-08-20T01:48:22;16.50;99.90
5705;DHT22;2877;48.238;11.160;2022-08-20T01:51:05;16.50;99.90
5705;DHT22;2877;48.238;11.160;2022-08-20T01:53:38;16.50;99.90
5705;DHT22;2877;48.238;11.160;2022-08-20T01:56:08;16.50;99.90
5705;DHT22;2877;48.238;11.160;2022-08-20T01:58:38;16.50;99.90
5705;DHT22;2877;48.238;11.160;2022-08-20T02:01:04;16.50;99.90
5705;DHT22;2877;48.238;11.160;2022-08-20T02:03:29;16.50;99.90
5705;DHT22;2877;48.238;11.160;2022-08-20T02:05:59;16.50;99.90
5705;DHT22;2877;48.238;11.160;2022-08-20T02:08:24;16.50;99.90
5705;DHT22;2877;48.238;11.160;2022-08-20T02:10:50;16.50;99.90
5705;DHT22;2877;48.238;11.160;2022-08-20T02:13:16;16.50;99.90
5705;DHT22;2877;48.238;11.160;2022-08-20T02:15:41;16.50;99.90
5705;DHT22;2877;48.238;11.160;2022-08-20T02:18:12;16.50;99.90
5705;DHT22;2877;48.238;11.160;2022-08-20T02:20:38;16.50;99.90
5705;DHT22;2877;48.238;11.160;2022-08-20T02:23:05;16.50;99.90
5705;DHT22;2877;48.238;11.160;2022-08-20T02:25:33;16.50;99.90
5705;DHT22;2877;48.238;11.160;2022-08-20T02:28:01;16.50;99.90
5705;DHT22;2877;48.238;11.160;2022-08-20T02:30:31;16.50;99.90
5705;DHT22;2877;48.238;11.160;2022-08-20T02:32:58;16.50;99.90
5705;DHT22;2877;48.238;11.160;2022-08-20T02:35:25;16.50;99.90
5705;DHT22;2877;48.238;11.160;2022-08-20T02:37:52;16.50;99.90
5705;DHT22;2877;48.238;11.160;2022-08-20T02:40:20;16.50;99.90
5705;DHT22;2877;48.238;11.160;2022-08-20T02:42:46;16.50;99.90
5705;DHT22;2877;48.238;11.160;2022-08-20T02:45:15;16.50;99.90
5705;DHT22;2877;48.238;11.160;2022-08-20T02:47:43;16.50;99.90
5705;DHT22;2877;48.238;11.160;2022-08-20T02:50:15;16.50;99.90
5705;DHT22;2877;48.238;11.160;2022-08-20T02:52:42;16.50;99.90
5705;DHT22;2877;48.238;11.160;2022-08-20T02:55:08;16.50;99.90
5705;DHT22;2877;48.238;11.160;2022-08-20T02:57:34;16.50;99.90
5705;DHT22;2877;48.238;11.160;2022-08-20T03:00:00;16.50;99.90
5705;DHT22;2877;48.238;11.160;2022-08-20T03:02:26;16.50;99.90
5705;DHT22;2877;48.238;11.160;2022-08-20T03:04:52;16.50;99.90
5705;DHT22;2877;48.238;11.160;2022-08-20T03:07:18;16.50;99.90
5705;DHT22;2877;48.238;11.160;2022-08-20T03:09:43;16.50;99.90
5705;DHT22;2877;48.238;11.160;2022-08-20T03:12:09;16.50;99.90
5705;DHT22;2877;48.238;11.160;2022-08-20T03:14:35;16.40;99.90
5705;DHT22;2877;48.238;11.160;2022-08-20T03:17:01;16.40;99.90
5705;DHT22;2877;48.238;11.160;2022-08-20T03:19:27;16.40;99.90
5705;DHT22;2877;48.238;11.160;2022-08-20T03:21:53;16.40;99.90
5705;DHT22;2877;48.238;11.160;2022-08-20T03:24:19;16.40;99.90
5705;DHT22;2877;48.238;11.160;2022-08-20T03:26:45;16.40;99.90
5705;DHT22;2877;48.238;11.160;2022-08-20T03:29:10;16.40;99.90
5705;DHT22;2877;48.238;11.160;2022-08-20T03:31:36;16.40;99.90
5705;DHT22;2877;48.238;11.160;2022-08-20T03:34:02;16.40;99.90
5705;DHT22;2877;48.238;11.160;2022-08-20T03:36:28;16.40;99.90
5705;DHT22;2877;48.238;11.160;2022-08-20T03:38:55;16.40;99.90
5705;DHT22;2877;48.238;11.160;2022-08-20T03:41:21;16.40;99.90
5705;DHT22;2877;48.238;11.160;2022-08-20T03:43:48;16.40;99.90
5705;DHT22;2877;48.238;11.160;2022-08-20T03:46:14;16.40;99.90
5705;DHT22;2877;48.238;11.160;2022-08-20T03:48:39;16.40;99.90
5705;DHT22;2877;48.238;11.160;2022-08-20T03:51:05;16.40;99.90
5705;DHT22;2877;48.238;11.160;2022-08-20T03:53:32;16.40;99.90
5705;DHT22;2877;48.238;11.160;2022-08-20T03:55:59;16.40;99.90
5705;DHT22;2877;48.238;11.160;2022-08-20T03:58:29;16.40;99.90
5705;DHT22;2877;48.238;11.160;2022-08-20T04:00:56;16.40;99.90
5705;DHT22;2877;48.238;11.160;2022-08-20T04:03:22;16.40;99.90
5705;DHT22;2877;48.238;11.160;2022-08-20T04:05:49;16.40;99.90
5705;DHT22;2877;48.238;11.160;2022-08-20T04:08:23;16.40;99.90
5705;DHT22;2877;48.238;11.160;2022-08-20T04:10:50;16.40;99.90
5705;DHT22;2877;48.238;11.160;2022-08-20T04:13:18;16.50;99.90
5705;DHT22;2877;48.238;11.160;2022-08-20T04:15:44;16.50;99.90
5705;DHT22;2877;48.238;11.160;2022-08-20T04:18:11;16.50;99.90
5705;DHT22;2877;48.238;11.160;2022-08-20T04:20:39;16.50;99.90
5705;DHT22;2877;48.238;11.160;2022-08-20T04:23:06;16.50;99.90
5705;DHT22;2877;48.238;11.160;2022-08-20T04:25:33;16.50;99.90
5705;DHT22;2877;48.238;11.160;2022-08-20T04:28:01;16.50;99.90
5705;DHT22;2877;48.238;11.160;2022-08-20T04:30:28;16.50;99.90
5705;DHT22;2877;48.238;11.160;2022-08-20T04:32:54;16.50;99.90
5705;DHT22;2877;48.238;11.160;2022-08-20T04:35:21;16.50;99.90
5705;DHT22;2877;48.238;11.160;2022-08-20T04:37:55;16.50;99.90
5705;DHT22;2877;48.238;11.160;2022-08-20T04:40:21;16.50;99.90
5705;DHT22;2877;48.238;11.160;2022-08-20T04:43:05;16.60;99.90
5705;DHT22;2877;48.238;11.160;2022-08-20T04:45:32;16.60;99.90
5705;DHT22;2877;48.238;11.160;2022-08-20T04:48:01;16.60;99.90
5705;DHT22;2877;48.238;11.160;2022-08-20T04:50:29;16.60;99.90
5705;DHT22;2877;48.238;11.160;2022-08-20T04:52:58;16.60;99.90
5705;DHT22;2877;48.238;11.160;2022-08-20T04:55:24;16.60;99.90
5705;DHT22;2877;48.238;11.160;2022-08-20T04:57:49;16.60;99.90
5705;DHT22;2877;48.238;11.160;2022-08-20T05:00:16;16.60;99.90
5705;DHT22;2877;48.238;11.160;2022-08-20T05:02:42;16.70;99.90
5705;DHT22;2877;48.238;11.160;2022-08-20T05:05:08;16.70;99.90
5705;DHT22;2877;48.238;11.160;2022-08-20T05:07:43;16.70;99.90
5705;DHT22;2877;48.238;11.160;2022-08-20T05:10:12;16.70;99.90
5705;DHT22;2877;48.238;11.160;2022-08-20T05:12:40;16.70;99.90
5705;DHT22;2877;48.238;11.160;2022-08-20T05:15:06;16.70;99.90
5705;DHT22;2877;48.238;11.160;2022-08-20T05:17:32;16.80;99.90
5705;DHT22;2877;48.238;11.160;2022-08-20T05:19:57;16.80;99.90
5705;DHT22;2877;48.238;11.160;2022-08-20T05:22:24;16.80;99.90
5705;DHT22;2877;48.238;11.160;2022-08-20T05:24:51;16.80;99.90
5705;DHT22;2877;48.238;11.160;2022-08-20T05:27:18;16.80;99.90
5705;DHT22;2877;48.238;11.160;2022-08-20T05:29:44;16.90;99.90
5705;DHT22;2877;48.238;11.160;2022-08-20T05:32:09;16.90;99.90
5705;DHT22;2877;48.238;11.160;2022-08-20T05:34:36;16.90;99.90
5705;DHT22;2877;48.238;11.160;2022-08-20T05:37:02;16.90;99.90
5705;DHT22;2877;48.238;11.160;2022-08-20T05:39:29;16.90;99.90
5705;DHT22;2877;48.238;11.160;2022-08-20T05:41:54;16.90;99.90
5705;DHT22;2877;48.238;11.160;2022-08-20T05:44:21;17.00;99.90
5705;DHT22;2877;48.238;11.160;2022-08-20T05:46:48;17.00;99.90
5705;DHT22;2877;48.238;11.160;2022-08-20T05:49:18;17.00;99.90
5705;DHT22;2877;48.238;11.160;2022-08-20T05:51:44;17.00;99.90
5705;DHT22;2877;48.238;11.160;2022-08-20T05:54:11;17.00;99.90
5705;DHT22;2877;48.238;11.160;2022-08-20T05:56:37;17.00;99.90
5705;DHT22;2877;48.238;11.160;2022-08-20T05:59:06;17.00;99.90
5705;DHT22;2877;48.238;11.160;2022-08-20T06:01:32;17.00;99.90
5705;DHT22;2877;48.238;11.160;2022-08-20T06:03:58;17.00;99.90
5705;DHT22;2877;48.238;11.160;2022-08-20T06:06:43;17.10;99.90
5705;DHT22;2877;48.238;11.160;2022-08-20T06:09:09;17.10;99.90
5705;DHT22;2877;48.238;11.160;2022-08-20T06:11:34;17.10;99.90
5705;DHT22;2877;48.238;11.160;2022-08-20T06:14:00;17.10;99.90
5705;DHT22;2877;48.238;11.160;2022-08-20T06:16:26;17.20;99.90
5705;DHT22;2877;48.238;11.160;2022-08-20T06:18:53;17.20;99.90
5705;DHT22;2877;48.238;11.160;2022-08-20T06:21:19;17.20;99.90
5705;DHT22;2877;48.238;11.160;2022-08-20T06:23:45;17.20;99.90
5705;DHT22;2877;48.238;11.160;2022-08-20T06:26:10;17.20;99.90
5705;DHT22;2877;48.238;11.160;2022-08-20T06:28:36;17.30;99.90
5705;DHT22;2877;48.238;11.160;2022-08-20T06:31:02;17.30;99.90
5705;DHT22;2877;48.238;11.160;2022-08-20T06:33:27;17.40;99.90
5705;DHT22;2877;48.238;11.160;2022-08-20T06:35:53;17.40;99.90
5705;DHT22;2877;48.238;11.160;2022-08-20T06:38:19;17.50;99.90
5705;DHT22;2877;48.238;11.160;2022-08-20T06:40:45;17.50;99.90
5705;DHT22;2877;48.238;11.160;2022-08-20T06:43:11;17.50;99.90
5705;DHT22;2877;48.238;11.160;2022-08-20T06:45:37;17.50;99.90
5705;DHT22;2877;48.238;11.160;2022-08-20T06:48:09;17.50;99.90
5705;DHT22;2877;48.238;11.160;2022-08-20T06:50:39;17.50;99.90
5705;DHT22;2877;48.238;11.160;2022-08-20T06:53:06;17.50;99.90
5705;DHT22;2877;48.238;11.160;2022-08-20T06:55:32;17.50;99.90
5705;DHT22;2877;48.238;11.160;2022-08-20T06:58:00;17.60;99.90
5705;DHT22;2877;48.238;11.160;2022-08-20T07:00:27;17.60;99.90
5705;DHT22;2877;48.238;11.160;2022-08-20T07:02:53;17.50;99.90
5705;DHT22;2877;48.238;11.160;2022-08-20T07:05:18;17.50;99.90
5705;DHT22;2877;48.238;11.160;2022-08-20T07:07:45;17.50;99.90
5705;DHT22;2877;48.238;11.160;2022-08-20T07:10:13;17.50;99.90
5705;DHT22;2877;48.238;11.160;2022-08-20T07:12:39;17.50;99.90
5705;DHT22;2877;48.238;11.160;2022-08-20T07:15:10;17.50;99.90
5705;DHT22;2877;48.238;11.160;2022-08-20T07:17:36;17.50;99.90
5705;DHT22;2877;48.238;11.160;2022-08-20T07:20:12;17.50;99.90
5705;DHT22;2877;48.238;11.160;2022-08-20T07:22:39;17.60;99.90
5705;DHT22;2877;48.238;11.160;2022-08-20T07:25:09;17.60;99.90
5705;DHT22;2877;48.238;11.160;2022-08-20T07:27:36;17.60;99.90
5705;DHT22;2877;48.238;11.160;2022-08-20T07:30:03;17.70;99.90
5705;DHT22;2877;48.238;11.160;2022-08-20T07:32:48;17.70;99.90
5705;DHT22;2877;48.238;11.160;2022-08-20T07:35:16;17.80;99.90
5705;DHT22;2877;48.238;11.160;2022-08-20T07:37:47;17.90;99.90
5705;DHT22;2877;48.238;11.160;2022-08-20T07:40:20;17.90;99.90
5705;DHT22;2877;48.238;11.160;2022-08-20T07:42:45;18.10;99.90
5705;DHT22;2877;48.238;11.160;2022-08-20T07:45:14;18.10;99.90
5705;DHT22;2877;48.238;11.160;2022-08-20T07:47:41;18.10;99.90
5705;DHT22;2877;48.238;11.160;2022-08-20T07:50:08;18.10;99.90
5705;DHT22;2877;48.238;11.160;2022-08-20T07:52:34;18.20;99.90
5705;DHT22;2877;48.238;11.160;2022-08-20T07:55:11;18.30;99.90
5705;DHT22;2877;48.238;11.160;2022-08-20T07:57:37;18.40;99.90
5705;DHT22;2877;48.238;11.160;2022-08-20T08:00:04;18.50;99.90
5705;DHT22;2877;48.238;11.160;2022-08-20T08:02:31;18.60;99.90
5705;DHT22;2877;48.238;11.160;2022-08-20T08:04:57;18.70;99.90
5705;DHT22;2877;48.238;11.160;2022-08-20T08:07:22;18.70;99.90
5705;DHT22;2877;48.238;11.160;2022-08-20T08:09:49;18.70;99.90
5705;DHT22;2877;48.238;11.160;2022-08-20T08:12:15;18.80;99.90
5705;DHT22;2877;48.238;11.160;2022-08-20T08:14:42;18.80;99.90
5705;DHT22;2877;48.238;11.160;2022-08-20T08:17:09;18.80;99.90
5705;DHT22;2877;48.238;11.160;2022-08-20T08:19:39;18.70;99.90
5705;DHT22;2877;48.238;11.160;2022-08-20T08:22:10;18.60;99.90
5705;DHT22;2877;48.238;11.160;2022-08-20T08:24:37;18.60;99.90
5705;DHT22;2877;48.238;11.160;2022-08-20T08:27:03;18.70;99.90
5705;DHT22;2877;48.238;11.160;2022-08-20T08:29:29;18.80;99.90
5705;DHT22;2877;48.238;11.160;2022-08-20T08:31:55;19.00;99.90
5705;DHT22;2877;48.238;11.160;2022-08-20T08:34:20;19.10;99.90
5705;DHT22;2877;48.238;11.160;2022-08-20T08:36:50;19.20;99.90
5705;DHT22;2877;48.238;11.160;2022-08-20T08:39:16;19.20;99.90
5705;DHT22;2877;48.238;11.160;2022-08-20T08:41:45;19.30;99.90
5705;DHT22;2877;48.238;11.160;2022-08-20T08:44:20;19.40;99.90
5705;DHT22;2877;48.238;11.160;2022-08-20T08:46:51;19.50;99.90
5705;DHT22;2877;48.238;11.160;2022-08-20T08:49:22;19.70;99.90
5705;DHT22;2877;48.238;11.160;2022-08-20T08:51:55;19.70;99.90
5705;DHT22;2877;48.238;11.160;2022-08-20T08:54:26;19.70;99.90
5705;DHT22;2877;48.238;11.160;2022-08-20T08:56:53;19.90;99.90
5705;DHT22;2877;48.238;11.160;2022-08-20T08:59:20;19.90;99.90
5705;DHT22;2877;48.238;11.160;2022-08-20T09:01:54;19.80;99.90
5705;DHT22;2877;48.238;11.160;2022-08-20T09:04:21;19.90;99.90
5705;DHT22;2877;48.238;11.160;2022-08-20T09:06:49;20.00;99.90
5705;DHT22;2877;48.238;11.160;2022-08-20T09:09:25;20.00;99.90
5705;DHT22;2877;48.238;11.160;2022-08-20T09:11:54;20.00;99.90
5705;DHT22;2877;48.238;11.160;2022-08-20T09:14:20;20.00;99.90
5705;DHT22;2877;48.238;11.160;2022-08-20T09:16:48;20.10;99.90
5705;DHT22;2877;48.238;11.160;2022-08-20T09:19:14;20.20;99.90
5705;DHT22;2877;48.238;11.160;2022-08-20T09:21:39;20.10;99.90
5705;DHT22;2877;48.238;11.160;2022-08-20T09:24:05;20.10;99.90
5705;DHT22;2877;48.238;11.160;2022-08-20T09:26:31;20.10;99.90
5705;DHT22;2877;48.238;11.160;2022-08-20T09:28:56;20.10;99.90
5705;DHT22;2877;48.238;11.160;2022-08-20T09:31:22;20.10;99.90
5705;DHT22;2877;48.238;11.160;2022-08-20T09:33:49;20.20;99.90
5705;DHT22;2877;48.238;11.160;2022-08-20T09:36:15;20.20;99.90
5705;DHT22;2877;48.238;11.160;2022-08-20T09:38:40;20.20;99.90
5705;DHT22;2877;48.238;11.160;2022-08-20T09:41:06;20.10;99.90
5705;DHT22;2877;48.238;11.160;2022-08-20T09:43:32;20.20;99.90
5705;DHT22;2877;48.238;11.160;2022-08-20T09:45:57;20.20;99.90
5705;DHT22;2877;48.238;11.160;2022-08-20T09:48:23;20.30;99.90
5705;DHT22;2877;48.238;11.160;2022-08-20T09:50:49;20.40;99.90
5705;DHT22;2877;48.238;11.160;2022-08-20T09:53:16;20.30;99.90
5705;DHT22;2877;48.238;11.160;2022-08-20T09:55:45;20.30;99.90
5705;DHT22;2877;48.238;11.160;2022-08-20T09:58:30;20.40;99.90
5705;DHT22;2877;48.238;11.160;2022-08-20T10:01:02;20.50;99.90
5705;DHT22;2877;48.238;11.160;2022-08-20T10:03:28;20.50;99.90
5705;DHT22;2877;48.238;11.160;2022-08-20T10:05:53;20.40;99.90
5705;DHT22;2877;48.238;11.160;2022-08-20T10:08:19;20.40;99.90
5705;DHT22;2877;48.238;11.160;2022-08-20T10:10:44;20.50;99.90
5705;DHT22;2877;48.238;11.160;2022-08-20T10:13:10;20.50;99.90
5705;DHT22;2877;48.238;11.160;2022-08-20T10:15:35;20.60;99.90
5705;DHT22;2877;48.238;11.160;2022-08-20T10:18:03;20.50;99.90
5705;DHT22;2877;48.238;11.160;2022-08-20T10:20:30;20.30;99.90
5705;DHT22;2877;48.238;11.160;2022-08-20T10:22:55;20.20;99.90
5705;DHT22;2877;48.238;11.160;2022-08-20T10:25:21;20.30;99.90
5705;DHT22;2877;48.238;11.160;2022-08-20T10:27:46;20.20;99.90
5705;DHT22;2877;48.238;11.160;2022-08-20T10:30:12;20.20;99.90
5705;DHT22;2877;48.238;11.160;2022-08-20T10:32:38;20.20;99.90
5705;DHT22;2877;48.238;11.160;2022-08-20T10:35:04;20.10;99.90
5705;DHT22;2877;48.238;11.160;2022-08-20T10:37:29;20.10;99.90
5705;DHT22;2877;48.238;11.160;2022-08-20T10:39:55;20.10;99.90
5705;DHT22;2877;48.238;11.160;2022-08-20T10:42:21;20.20;99.90
5705;DHT22;2877;48.238;11.160;2022-08-20T10:44:46;20.40;99.90
5705;DHT22;2877;48.238;11.160;2022-08-20T10:49:46;20.80;99.90
5705;DHT22;2877;48.238;11.160;2022-08-20T10:52:12;21.00;99.90
5705;DHT22;2877;48.238;11.160;2022-08-20T10:54:37;21.00;99.90
5705;DHT22;2877;48.238;11.160;2022-08-20T10:57:13;21.30;99.90
5705;DHT22;2877;48.238;11.160;2022-08-20T10:59:41;21.50;99.90
5705;DHT22;2877;48.238;11.160;2022-08-20T11:02:07;21.70;99.90
5705;DHT22;2877;48.238;11.160;2022-08-20T11:04:33;21.70;99.90
5705;DHT22;2877;48.238;11.160;2022-08-20T11:09:37;21.50;99.90
5705;DHT22;2877;48.238;11.160;2022-08-20T11:12:03;21.80;99.90
5705;DHT22;2877;48.238;11.160;2022-08-20T11:14:29;21.90;99.90
5705;DHT22;2877;48.238;11.160;2022-08-20T11:16:55;22.00;99.90
5705;DHT22;2877;48.238;11.160;2022-08-20T11:19:21;22.10;99.90
5705;DHT22;2877;48.238;11.160;2022-08-20T11:21:46;22.30;99.90
5705;DHT22;2877;48.238;11.160;2022-08-20T11:24:12;22.20;99.90
5705;DHT22;2877;48.238;11.160;2022-08-20T11:26:37;22.10;99.90
5705;DHT22;2877;48.238;11.160;2022-08-20T11:29:03;22.10;99.90
5705;DHT22;2877;48.238;11.160;2022-08-20T11:31:29;22.20;99.90
5705;DHT22;2877;48.238;11.160;2022-08-20T11:33:54;22.00;99.90
5705;DHT22;2877;48.238;11.160;2022-08-20T11:36:20;22.10;99.90
5705;DHT22;2877;48.238;11.160;2022-08-20T11:38:46;22.30;99.90
5705;DHT22;2877;48.238;11.160;2022-08-20T11:41:12;22.40;99.90
5705;DHT22;2877;48.238;11.160;2022-08-20T11:43:37;22.40;99.90
5705;DHT22;2877;48.238;11.160;2022-08-20T11:46:03;22.60;99.90
5705;DHT22;2877;48.238;11.160;2022-08-20T11:48:28;22.50;99.90
5705;DHT22;2877;48.238;11.160;2022-08-20T11:50:54;22.60;99.90
5705;DHT22;2877;48.238;11.160;2022-08-20T11:53:19;22.90;99.90
5705;DHT22;2877;48.238;11.160;2022-08-20T11:55:45;23.30;99.90
5705;DHT22;2877;48.238;11.160;2022-08-20T11:58:11;23.80;99.90
5705;DHT22;2877;48.238;11.160;2022-08-20T12:00:37;23.60;99.90
5705;DHT22;2877;48.238;11.160;2022-08-20T12:03:05;23.80;99.90
5705;DHT22;2877;48.238;11.160;2022-08-20T12:05:30;23.70;99.90
5705;DHT22;2877;48.238;11.160;2022-08-20T12:07:59;23.40;99.90
5705;DHT22;2877;48.238;11.160;2022-08-20T12:10:25;23.10;99.90
5705;DHT22;2877;48.238;11.160;2022-08-20T12:12:52;23.00;99.90
5705;DHT22;2877;48.238;11.160;2022-08-20T12:15:18;22.90;99.90
5705;DHT22;2877;48.238;11.160;2022-08-20T12:17:44;22.60;99.90
5705;DHT22;2877;48.238;11.160;2022-08-20T12:20:11;22.70;99.90
5705;DHT22;2877;48.238;11.160;2022-08-20T12:22:37;22.60;99.90
5705;DHT22;2877;48.238;11.160;2022-08-20T12:25:04;22.70;99.90
5705;DHT22;2877;48.238;11.160;2022-08-20T12:27:31;22.60;99.90
5705;DHT22;2877;48.238;11.160;2022-08-20T12:30:00;22.70;99.90
5705;DHT22;2877;48.238;11.160;2022-08-20T12:32:27;22.80;99.90
5705;DHT22;2877;48.238;11.160;2022-08-20T12:34:54;22.90;99.90
5705;DHT22;2877;48.238;11.160;2022-08-20T12:37:22;22.70;99.90
5705;DHT22;2877;48.238;11.160;2022-08-20T12:39:52;22.80;99.90
5705;DHT22;2877;48.238;11.160;2022-08-20T12:42:19;22.90;99.90
5705;DHT22;2877;48.238;11.160;2022-08-20T12:44:44;23.20;99.90
5705;DHT22;2877;48.238;11.160;2022-08-20T12:47:23;23.30;99.90
5705;DHT22;2877;48.238;11.160;2022-08-20T12:49:53;23.20;99.90
5705;DHT22;2877;48.238;11.160;2022-08-20T12:52:20;23.10;99.90
5705;DHT22;2877;48.238;11.160;2022-08-20T12:54:47;22.90;99.90
5705;DHT22;2877;48.238;11.160;2022-08-20T12:57:29;22.50;99.90
5705;DHT22;2877;48.238;11.160;2022-08-20T12:59:56;22.60;99.90
5705;DHT22;2877;48.238;11.160;2022-08-20T13:02:22;22.50;99.90
5705;DHT22;2877;48.238;11.160;2022-08-20T13:04:48;22.40;99.90
5705;DHT22;2877;48.238;11.160;2022-08-20T13:07:14;22.50;99.90
5705;DHT22;2877;48.238;11.160;2022-08-20T13:09:40;22.60;99.90
5705;DHT22;2877;48.238;11.160;2022-08-20T13:12:07;22.70;99.90
5705;DHT22;2877;48.238;11.160;2022-08-20T13:14:33;22.60;99.90
5705;DHT22;2877;48.238;11.160;2022-08-20T13:17:00;22.90;99.90
5705;DHT22;2877;48.238;11.160;2022-08-20T13:19:27;23.00;99.90
5705;DHT22;2877;48.238;11.160;2022-08-20T13:21:53;23.10;99.90
5705;DHT22;2877;48.238;11.160;2022-08-20T13:24:19;23.10;99.90
5705;DHT22;2877;48.238;11.160;2022-08-20T13:26:45;23.00;99.90
5705;DHT22;2877;48.238;11.160;2022-08-20T13:29:11;22.90;99.90
5705;DHT22;2877;48.238;11.160;2022-08-20T13:31:37;23.00;99.90
5705;DHT22;2877;48.238;11.160;2022-08-20T13:34:03;23.10;99.90
5705;DHT22;2877;48.238;11.160;2022-08-20T13:36:28;23.20;99.90
5705;DHT22;2877;48.238;11.160;2022-08-20T13:38:54;23.40;99.90
5705;DHT22;2877;48.238;11.160;2022-08-20T13:41:19;23.60;99.90
5705;DHT22;2877;48.238;11.160;2022-08-20T13:43:46;23.90;99.90
5705;DHT22;2877;48.238;11.160;2022-08-20T13:46:12;24.10;99.90
5705;DHT22;2877;48.238;11.160;2022-08-20T13:48:37;24.10;99.90
5705;DHT22;2877;48.238;11.160;2022-08-20T13:51:03;24.00;99.90
5705;DHT22;2877;48.238;11.160;2022-08-20T13:53:28;24.10;99.90
5705;DHT22;2877;48.238;11.160;2022-08-20T13:55:54;24.00;99.90
5705;DHT22;2877;48.238;11.160;2022-08-20T13:58:19;23.80;99.90
5705;DHT22;2877;48.238;11.160;2022-08-20T14:00:48;23.50;99.90
5705;DHT22;2877;48.238;11.160;2022-08-20T14:03:13;23.10;99.90
5705;DHT22;2877;48.238;11.160;2022-08-20T14:05:40;22.90;99.90
5705;DHT22;2877;48.238;11.160;2022-08-20T14:08:10;22.70;99.90
5705;DHT22;2877;48.238;11.160;2022-08-20T14:10:37;22.40;99.90
5705;DHT22;2877;48.238;11.160;2022-08-20T14:13:03;22.30;99.90
5705;DHT22;2877;48.238;11.160;2022-08-20T14:15:31;22.30;99.90
5705;DHT22;2877;48.238;11.160;2022-08-20T14:17:56;22.20;99.90
5705;DHT22;2877;48.238;11.160;2022-08-20T14:20:26;21.90;99.90
5705;DHT22;2877;48.238;11.160;2022-08-20T14:22:52;21.60;99.90
5705;DHT22;2877;48.238;11.160;2022-08-20T14:25:20;21.10;99.90
5705;DHT22;2877;48.238;11.160;2022-08-20T14:27:46;20.90;99.90
5705;DHT22;2877;48.238;11.160;2022-08-20T14:30:16;20.90;99.90
5705;DHT22;2877;48.238;11.160;2022-08-20T14:32:42;20.90;99.90
5705;DHT22;2877;48.238;11.160;2022-08-20T14:35:08;20.70;99.90
5705;DHT22;2877;48.238;11.160;2022-08-20T14:37:37;20.70;99.90
5705;DHT22;2877;48.238;11.160;2022-08-20T14:40:06;20.70;99.90
5705;DHT22;2877;48.238;11.160;2022-08-20T14:42:32;20.80;99.90
5705;DHT22;2877;48.238;11.160;2022-08-20T14:44:58;20.70;99.90
5705;DHT22;2877;48.238;11.160;2022-08-20T14:47:29;20.60;99.90
5705;DHT22;2877;48.238;11.160;2022-08-20T14:49:57;20.40;99.90
5705;DHT22;2877;48.238;11.160;2022-08-20T14:52:27;20.20;99.90
5705;DHT22;2877;48.238;11.160;2022-08-20T14:54:52;20.00;99.90
5705;DHT22;2877;48.238;11.160;2022-08-20T14:57:19;19.90;99.90
5705;DHT22;2877;48.238;11.160;2022-08-20T14:59:45;19.80;99.90
5705;DHT22;2877;48.238;11.160;2022-08-20T15:02:12;19.60;99.90
5705;DHT22;2877;48.238;11.160;2022-08-20T15:04:40;19.50;99.90
5705;DHT22;2877;48.238;11.160;2022-08-20T15:07:12;19.10;99.90
5705;DHT22;2877;48.238;11.160;2022-08-20T15:09:38;18.60;99.90
5705;DHT22;2877;48.238;11.160;2022-08-20T15:12:04;18.30;99.90
5705;DHT22;2877;48.238;11.160;2022-08-20T15:14:30;18.20;99.90
5705;DHT22;2877;48.238;11.160;2022-08-20T15:16:55;18.20;99.90
5705;DHT22;2877;48.238;11.160;2022-08-20T15:19:21;18.00;99.90
5705;DHT22;2877;48.238;11.160;2022-08-20T15:21:47;17.90;99.90
5705;DHT22;2877;48.238;11.160;2022-08-20T15:24:14;17.70;99.90
5705;DHT22;2877;48.238;11.160;2022-08-20T15:26:40;17.50;99.90
5705;DHT22;2877;48.238;11.160;2022-08-20T15:29:06;17.50;99.90
5705;DHT22;2877;48.238;11.160;2022-08-20T15:31:32;17.50;99.90
5705;DHT22;2877;48.238;11.160;2022-08-20T15:33:58;17.50;99.90
5705;DHT22;2877;48.238;11.160;2022-08-20T15:36:23;17.60;99.90
5705;DHT22;2877;48.238;11.160;2022-08-20T15:38:49;17.70;99.90
5705;DHT22;2877;48.238;11.160;2022-08-20T15:41:15;17.80;99.90
5705;DHT22;2877;48.238;11.160;2022-08-20T15:43:41;18.00;99.90
5705;DHT22;2877;48.238;11.160;2022-08-20T15:46:06;18.10;99.90
5705;DHT22;2877;48.238;11.160;2022-08-20T15:48:35;18.10;99.90
5705;DHT22;2877;48.238;11.160;2022-08-20T15:56:44;18.20;99.90
5705;DHT22;2877;48.238;11.160;2022-08-20T15:59:42;18.30;99.90
5705;DHT22;2877;48.238;11.160;2022-08-20T16:10:44;18.50;99.90